Time;durP1;ratioP1;P1;durP2;ratioP2;P2;SDS_P1;SDS_P2;PMS_P1;PMS_P2;Temp;Humidity;BMP_temperature;BMP_pressure;BME280_temperature;BME280_humidity;BME280_pressure;Samples;Min_cycle;Max_cycle;Signal;HPM_P1;HPM_P2
2022/10/15 00:06:56;;;;;;;25.13;19.35;;;12.60;99.90;;;;;;6177970;22;21314;-90
2022/10/15 00:25:41;;;;;;;27.98;20.05;;;12.20;99.90;;;;;;6216506;22;20198;-89
2022/10/15 00:28:11;;;;;;;27.90;20.00;;;12.20;99.90;;;;;;6201049;22;20207;-90
2022/10/15 00:36:07;;;;;;;27.70;18.35;;;12.00;99.90;;;;;;6183540;22;20194;-87
2022/10/15 00:41:20;;;;;;;23.42;17.77;;;11.80;99.90;;;;;;6227774;22;20289;-90
2022/10/15 00:52:04;;;;;;;29.10;20.13;;;11.80;99.90;;;;;;6232316;22;20270;-89
2022/10/15 01:02:22;;;;;;;31.77;21.00;;;11.60;99.90;;;;;;6273090;22;20205;-90
2022/10/15 01:04:53;;;;;;;28.60;21.10;;;11.60;99.90;;;;;;6247771;23;20147;-90
2022/10/15 01:07:20;;;;;;;30.05;20.52;;;11.50;99.90;;;;;;6259500;22;20195;-90
2022/10/15 01:09:49;;;;;;;32.22;22.58;;;11.50;99.90;;;;;;6174134;22;20727;-87
2022/10/15 01:21:02;;;;;;;34.40;21.15;;;11.40;99.90;;;;;;6238520;22;20186;-89
2022/10/15 01:29:13;;;;;;;27.23;20.85;;;11.00;99.90;;;;;;6204490;22;20235;-90
2022/10/15 01:37:45;;;;;;;28.20;21.90;;;10.90;99.90;;;;;;6234296;22;20194;-88
2022/10/15 01:40:19;;;;;;;35.53;23.83;;;10.70;99.90;;;;;;6240827;22;21371;-86
2022/10/15 01:42:59;;;;;;;30.23;22.50;;;10.60;99.90;;;;;;6209123;22;20190;-90
2022/10/15 02:04:30;;;;;;;34.78;23.48;;;10.50;99.90;;;;;;6178686;22;20174;-89
2022/10/15 02:07:15;;;;;;;33.03;23.85;;;10.40;99.90;;;;;;6216010;22;20197;-89
2022/10/15 02:12:49;;;;;;;37.72;25.55;;;10.30;99.90;;;;;;6192851;22;20467;-89
2022/10/15 02:18:03;;;;;;;38.08;25.15;;;10.30;99.90;;;;;;6259839;22;20188;-90
2022/10/15 02:55:22;;;;;;;27.83;22.52;;;10.50;99.90;;;;;;6227536;22;20274;-87
2022/10/15 02:57:50;;;;;;;29.75;22.33;;;10.50;99.90;;;;;;6251289;22;20208;-88
2022/10/15 03:08:18;;;;;;;22.17;19.08;;;10.50;99.90;;;;;;6210295;22;20210;-91
2022/10/15 03:10:50;;;;;;;29.65;21.35;;;10.40;99.90;;;;;;6229366;22;20246;-86
2022/10/15 03:13:18;;;;;;;27.77;21.08;;;10.50;99.90;;;;;;6251575;22;20193;-88
2022/10/15 03:15:56;;;;;;;35.58;20.23;;;10.50;99.90;;;;;;6179808;22;20209;-91
2022/10/15 03:23:35;;;;;;;27.17;19.70;;;10.50;99.90;;;;;;6217954;22;20229;-90
2022/10/15 03:26:10;;;;;;;29.02;21.23;;;10.50;99.90;;;;;;6272121;23;20149;-89
2022/10/15 03:31:19;;;;;;;29.33;19.42;;;10.50;99.90;;;;;;6232551;22;20204;-90
2022/10/15 03:33:48;;;;;;;27.10;19.80;;;10.40;99.90;;;;;;6204092;22;20309;-90
2022/10/15 03:38:52;;;;;;;32.15;21.50;;;10.50;99.90;;;;;;6201126;22;20419;-88
2022/10/15 03:41:25;;;;;;;28.92;21.58;;;10.50;99.90;;;;;;6185912;22;20199;-87
2022/10/15 03:54:35;;;;;;;29.20;21.13;;;10.60;99.90;;;;;;6221490;22;20243;-89
2022/10/15 03:57:09;;;;;;;31.15;21.70;;;10.60;99.90;;;;;;6178605;22;20299;-91
2022/10/15 04:02:24;;;;;;;32.40;20.17;;;10.60;99.90;;;;;;6218989;22;20298;-89
2022/10/15 04:07:46;;;;;;;27.40;20.65;;;10.70;99.90;;;;;;6228035;22;20220;-90
2022/10/15 04:10:14;;;;;;;26.88;19.90;;;10.80;99.90;;;;;;6262251;22;20275;-88
2022/10/15 04:12:43;;;;;;;30.08;19.77;;;10.80;99.90;;;;;;6260526;22;20170;-91
2022/10/15 04:15:11;;;;;;;22.35;18.95;;;10.80;99.90;;;;;;6221072;22;20233;-88
2022/10/15 04:17:42;;;;;;;27.63;19.50;;;10.90;99.90;;;;;;6238843;22;20179;-91
2022/10/15 04:20:10;;;;;;;26.73;18.77;;;10.80;99.90;;;;;;6264239;23;20183;-88
2022/10/15 04:22:38;;;;;;;26.13;18.75;;;10.90;99.90;;;;;;6236355;23;20201;-90
2022/10/15 04:25:08;;;;;;;24.30;19.52;;;10.90;99.90;;;;;;6262810;22;20185;-89
2022/10/15 04:27:35;;;;;;;26.58;19.55;;;10.90;99.90;;;;;;6232644;23;20175;-88
2022/10/15 04:30:04;;;;;;;26.00;19.95;;;10.90;99.90;;;;;;6258929;22;20209;-88
2022/10/15 04:32:31;;;;;;;26.38;18.38;;;11.00;99.90;;;;;;6232541;23;20197;-88
2022/10/15 04:34:58;;;;;;;23.88;19.27;;;11.00;99.90;;;;;;6260545;23;20175;-88
2022/10/15 04:37:26;;;;;;;31.75;20.77;;;10.90;99.90;;;;;;6259556;23;20186;-89
2022/10/15 04:39:56;;;;;;;25.33;18.38;;;11.00;99.90;;;;;;6257406;23;20174;-88
2022/10/15 04:42:24;;;;;;;34.58;19.90;;;11.00;99.90;;;;;;6260337;23;20187;-85
2022/10/15 04:44:51;;;;;;;25.73;18.55;;;11.10;99.90;;;;;;6232296;23;20209;-86
2022/10/15 04:47:19;;;;;;;29.90;19.60;;;11.00;99.90;;;;;;6231959;23;20183;-90
2022/10/15 04:49:47;;;;;;;27.45;20.55;;;10.90;99.90;;;;;;6259519;23;20182;-89
2022/10/15 04:52:17;;;;;;;34.40;22.83;;;11.00;99.90;;;;;;6232860;22;20225;-90
2022/10/15 04:54:44;;;;;;;31.15;19.55;;;11.00;99.90;;;;;;6256823;23;20229;-90
2022/10/15 04:57:11;;;;;;;27.75;19.58;;;11.00;99.90;;;;;;6232792;23;20209;-88
2022/10/15 04:59:38;;;;;;;25.73;19.15;;;11.10;99.90;;;;;;6200733;22;20257;-89
2022/10/15 05:02:07;;;;;;;30.95;19.85;;;11.20;99.90;;;;;;6195606;22;20257;-89
2022/10/15 05:04:36;;;;;;;29.40;20.17;;;11.20;99.90;;;;;;6205927;23;20205;-89
2022/10/15 05:20:33;;;;;;;25.35;18.80;;;11.20;99.90;;;;;;6223286;22;20206;-87
2022/10/15 05:23:00;;;;;;;32.47;20.70;;;11.20;99.90;;;;;;6212324;22;20617;-88
2022/10/15 05:25:27;;;;;;;26.35;19.48;;;11.10;99.90;;;;;;6247325;22;20218;-88
2022/10/15 05:27:57;;;;;;;27.25;21.42;;;11.00;99.90;;;;;;6239053;22;20216;-89
2022/10/15 05:38:21;;;;;;;28.30;20.20;;;11.20;99.90;;;;;;6180319;22;20289;-89
2022/10/15 05:43:24;;;;;;;28.38;19.00;;;11.30;99.90;;;;;;6219264;22;20210;-90
2022/10/15 05:45:55;;;;;;;28.13;20.52;;;11.30;99.90;;;;;;6209354;22;20160;-90
2022/10/15 05:48:24;;;;;;;28.27;18.13;;;11.40;99.90;;;;;;6226309;22;20935;-88
2022/10/15 05:56:12;;;;;;;29.77;19.65;;;11.40;99.90;;;;;;6186580;22;21475;-88
2022/10/15 05:58:42;;;;;;;30.15;18.05;;;11.40;99.90;;;;;;6213773;23;20240;-88
2022/10/15 06:01:13;;;;;;;28.45;19.42;;;11.50;99.90;;;;;;6190894;23;20161;-88
2022/10/15 06:03:42;;;;;;;31.75;22.15;;;11.50;99.90;;;;;;6235745;23;20206;-90
2022/10/15 06:06:21;;;;;;;28.25;19.40;;;11.50;99.90;;;;;;6232271;23;20175;-89
2022/10/15 06:08:52;;;;;;;26.38;16.88;;;11.60;99.90;;;;;;6258166;23;20350;-90
2022/10/15 06:11:23;;;;;;;35.13;20.95;;;11.70;99.90;;;;;;6258810;23;20162;-88
2022/10/15 06:13:54;;;;;;;31.25;20.33;;;11.70;99.90;;;;;;6174550;22;20221;-89
2022/10/15 06:19:05;;;;;;;27.70;19.00;;;11.90;99.90;;;;;;6201737;23;20233;-82
2022/10/15 06:21:35;;;;;;;25.67;17.58;;;12.00;99.90;;;;;;6198498;23;20231;-90
2022/10/15 06:24:04;;;;;;;28.38;20.92;;;12.00;99.90;;;;;;6198573;23;20207;-88
2022/10/15 06:26:48;;;;;;;32.42;19.75;;;12.10;99.90;;;;;;6152086;23;20395;-88
2022/10/15 06:29:19;;;;;;;30.92;21.85;;;12.10;99.90;;;;;;6172859;23;20172;-90
2022/10/15 06:31:48;;;;;;;33.15;21.95;;;12.30;99.90;;;;;;6172163;23;20176;-89
2022/10/15 06:34:19;;;;;;;34.88;20.60;;;12.40;99.90;;;;;;6199464;23;20244;-88
2022/10/15 06:36:46;;;;;;;32.38;20.17;;;12.60;99.90;;;;;;6233339;22;20199;-88
2022/10/15 06:39:19;;;;;;;29.70;19.67;;;12.60;99.90;;;;;;6261052;22;20231;-90
2022/10/15 06:41:49;;;;;;;31.83;20.33;;;12.70;99.90;;;;;;6263417;23;20205;-89
2022/10/15 06:44:23;;;;;;;30.60;22.25;;;12.70;99.90;;;;;;6264926;22;20175;-90
2022/10/15 06:46:51;;;;;;;28.88;18.58;;;12.80;99.90;;;;;;6261321;23;20193;-87
2022/10/15 06:49:19;;;;;;;31.65;19.13;;;12.80;99.90;;;;;;6262143;22;20176;-89
2022/10/15 06:51:46;;;;;;;27.63;18.38;;;13.00;99.90;;;;;;6260122;23;20170;-89
2022/10/15 06:54:15;;;;;;;27.52;20.08;;;12.90;99.90;;;;;;6258597;22;20179;-89
2022/10/15 06:56:44;;;;;;;29.27;17.88;;;13.20;99.90;;;;;;6260670;23;20253;-90
2022/10/15 06:59:14;;;;;;;25.83;17.13;;;13.10;99.90;;;;;;6285509;22;20173;-88
2022/10/15 07:01:44;;;;;;;31.33;18.23;;;13.20;99.90;;;;;;6260535;22;20159;-85
2022/10/15 07:04:12;;;;;;;25.90;18.17;;;13.30;99.90;;;;;;6269371;22;20183;-87
2022/10/15 07:06:42;;;;;;;31.08;19.58;;;13.50;99.90;;;;;;6273977;22;20200;-85
2022/10/15 07:09:12;;;;;;;28.42;18.30;;;13.70;99.90;;;;;;6273132;22;20192;-86
2022/10/15 07:11:40;;;;;;;28.08;17.38;;;13.70;99.90;;;;;;6271367;22;20193;-87
2022/10/15 07:14:09;;;;;;;27.13;19.42;;;13.70;99.90;;;;;;6262441;23;20209;-84
2022/10/15 07:16:38;;;;;;;30.00;19.83;;;13.70;99.90;;;;;;6258235;23;20175;-86
2022/10/15 07:19:07;;;;;;;30.63;18.95;;;13.80;99.90;;;;;;6257313;22;20211;-85
2022/10/15 07:21:35;;;;;;;27.27;19.50;;;13.70;99.90;;;;;;6257201;23;20192;-84
2022/10/15 07:24:04;;;;;;;31.50;19.80;;;14.00;99.90;;;;;;6256195;23;20208;-87
2022/10/15 07:26:30;;;;;;;23.10;18.93;;;14.10;99.90;;;;;;6255128;23;20419;-83
2022/10/15 07:28:58;;;;;;;32.40;21.30;;;14.30;99.90;;;;;;6230038;23;20402;-85
2022/10/15 07:31:26;;;;;;;29.77;20.88;;;14.50;99.90;;;;;;6253101;23;20497;-86
2022/10/15 07:33:57;;;;;;;28.00;20.87;;;14.50;99.90;;;;;;6256520;22;20199;-82
2022/10/15 07:36:25;;;;;;;25.60;18.98;;;14.60;99.90;;;;;;6257157;23;20953;-88
2022/10/15 07:38:55;;;;;;;31.57;20.80;;;14.70;99.90;;;;;;6256980;22;20254;-86
2022/10/15 07:41:22;;;;;;;25.87;19.30;;;14.80;99.90;;;;;;6253273;23;20393;-86
2022/10/15 07:43:54;;;;;;;27.00;17.90;;;15.00;99.90;;;;;;6254470;23;20447;-86
2022/10/15 07:46:23;;;;;;;28.53;21.03;;;15.40;99.90;;;;;;6255512;23;20629;-86
2022/10/15 07:48:52;;;;;;;29.17;18.63;;;15.80;99.90;;;;;;6255402;22;20398;-87
2022/10/15 07:51:23;;;;;;;24.20;18.47;;;16.10;99.90;;;;;;6255653;22;20412;-85
2022/10/15 07:53:52;;;;;;;25.40;18.93;;;16.10;99.90;;;;;;6254335;23;20446;-85
2022/10/15 07:56:33;;;;;;;34.53;21.27;;;16.10;99.90;;;;;;6253895;22;20413;-85
2022/10/15 07:59:00;;;;;;;28.53;20.00;;;16.10;99.90;;;;;;6252503;23;20465;-87
2022/10/15 08:01:35;;;;;;;42.17;21.77;;;16.40;99.90;;;;;;6254952;23;20351;-85
2022/10/15 08:04:05;;;;;;;27.30;20.37;;;16.40;99.90;;;;;;6255705;22;20417;-83
2022/10/15 08:06:35;;;;;;;28.47;19.63;;;16.30;99.90;;;;;;6255259;23;20418;-85
2022/10/15 08:09:05;;;;;;;31.00;19.57;;;16.30;99.90;;;;;;6254731;23;20407;-83
2022/10/15 08:11:33;;;;;;;31.87;21.30;;;16.30;99.90;;;;;;6255134;22;20412;-84
2022/10/15 08:14:04;;;;;;;25.77;18.93;;;16.40;99.90;;;;;;6249333;22;20651;-83
2022/10/15 08:16:34;;;;;;;27.27;20.53;;;16.50;99.90;;;;;;6254085;22;20387;-84
2022/10/15 08:19:03;;;;;;;25.23;20.70;;;16.60;99.90;;;;;;6255413;23;20402;-86
2022/10/15 08:21:32;;;;;;;26.83;19.43;;;16.60;99.90;;;;;;6254474;23;20927;-85
2022/10/15 08:24:03;;;;;;;27.83;19.40;;;16.50;99.90;;;;;;6256184;23;20999;-87
2022/10/15 08:26:30;;;;;;;29.00;19.60;;;16.60;99.90;;;;;;6259260;23;20399;-87
2022/10/15 08:29:00;;;;;;;29.20;18.50;;;16.70;99.90;;;;;;6267678;22;20503;-87
2022/10/15 08:31:34;;;;;;;31.73;22.03;;;16.90;99.90;;;;;;6268660;22;20380;-86
2022/10/15 08:34:01;;;;;;;29.33;21.93;;;17.00;99.90;;;;;;6269246;22;20387;-86
2022/10/15 08:36:30;;;;;;;25.60;18.20;;;16.80;99.90;;;;;;6269877;22;20817;-84
2022/10/15 08:39:00;;;;;;;32.40;22.27;;;16.80;99.90;;;;;;6288120;22;20388;-84
2022/10/15 08:41:40;;;;;;;31.30;21.80;;;16.70;99.90;;;;;;6261241;22;20383;-85
2022/10/15 08:44:26;;;;;;;33.20;23.43;;;16.40;99.90;;;;;;6288750;22;20739;-87
2022/10/15 08:47:06;;;;;;;29.40;22.30;;;16.20;99.90;;;;;;6261824;22;20395;-86
2022/10/15 08:49:49;;;;;;;25.30;21.23;;;16.20;99.90;;;;;;6262325;22;20757;-85
2022/10/15 08:52:43;;;;;;;27.67;20.70;;;15.90;99.90;;;;;;6260471;22;20581;-85
2022/10/15 08:55:17;;;;;;;38.00;23.67;;;15.80;99.90;;;;;;6287691;22;20366;-84
2022/10/15 08:58:12;;;;;;;28.80;21.60;;;15.70;99.90;;;;;;6289169;22;20422;-88
2022/10/15 09:00:57;;;;;;;33.27;22.60;;;15.70;99.90;;;;;;6287330;22;20403;-88
2022/10/15 09:03:55;;;;;;;32.73;23.33;;;16.10;99.90;;;;;;6263325;22;20568;-87
2022/10/15 09:06:38;;;;;;;28.10;20.47;;;15.90;99.90;;;;;;6264660;22;20376;-89
2022/10/15 09:09:18;;;;;;;33.53;22.30;;;16.10;99.90;;;;;;6294053;22;20390;-87
2022/10/15 09:12:10;;;;;;;31.73;22.23;;;16.30;99.90;;;;;;6267076;22;21006;-87
2022/10/15 09:14:57;;;;;;;25.60;19.77;;;16.30;99.90;;;;;;6271492;22;20398;-89
2022/10/15 09:17:28;;;;;;;24.83;19.03;;;16.40;99.90;;;;;;6294661;22;20411;-86
2022/10/15 09:19:56;;;;;;;28.20;20.70;;;16.50;99.90;;;;;;6266624;22;20462;-89
2022/10/15 09:22:27;;;;;;;33.60;21.60;;;16.50;99.90;;;;;;6264860;22;20417;-91
2022/10/15 09:24:57;;;;;;;26.73;20.13;;;16.40;99.90;;;;;;6267280;22;20427;-90
2022/10/15 09:27:31;;;;;;;29.60;21.50;;;16.60;99.90;;;;;;6264544;22;20414;-87
2022/10/15 09:30:16;;;;;;;25.30;18.90;;;16.80;99.90;;;;;;6293428;22;20386;-91
2022/10/15 09:32:57;;;;;;;24.60;19.50;;;16.70;99.90;;;;;;6265414;22;20447;-87
2022/10/15 09:35:40;;;;;;;23.37;18.83;;;16.90;99.90;;;;;;6265201;22;20368;-91
2022/10/15 09:38:23;;;;;;;24.43;17.17;;;16.90;99.90;;;;;;6265554;22;20425;-86
2022/10/15 09:41:16;;;;;;;26.07;19.47;;;17.10;99.90;;;;;;6297145;22;20386;-89
2022/10/15 09:43:50;;;;;;;22.90;17.20;;;17.30;99.90;;;;;;6302398;22;20384;-89
2022/10/15 09:46:17;;;;;;;23.30;15.80;;;17.30;99.90;;;;;;6303085;22;20398;-85
2022/10/15 09:49:07;;;;;;;19.50;15.53;;;17.30;99.90;;;;;;6273246;22;20423;-89
2022/10/15 09:51:53;;;;;;;24.33;16.67;;;17.20;99.90;;;;;;6291624;22;20391;-88
2022/10/15 09:55:15;;;;;;;20.87;14.70;;;17.00;99.90;;;;;;6263823;22;20382;-90
2022/10/15 09:57:47;;;;;;;18.30;15.17;;;16.90;99.90;;;;;;6255929;22;20402;-87
2022/10/15 10:00:57;;;;;;;18.13;14.73;;;16.90;99.90;;;;;;6286375;22;20418;-89
2022/10/15 10:03:28;;;;;;;15.73;13.10;;;17.20;99.90;;;;;;6288602;22;20413;-91
2022/10/15 10:06:14;;;;;;;18.47;15.03;;;17.20;99.90;;;;;;6262927;22;20454;-85
2022/10/15 10:08:55;;;;;;;20.73;15.47;;;16.90;99.90;;;;;;6260644;22;20436;-88
2022/10/15 10:11:25;;;;;;;19.03;14.17;;;16.70;99.90;;;;;;6262512;22;20405;-88
2022/10/15 10:14:05;;;;;;;20.47;14.90;;;16.70;99.90;;;;;;6261305;22;20495;-88
2022/10/15 10:17:07;;;;;;;18.10;15.57;;;16.50;99.90;;;;;;6288859;22;20440;-87
2022/10/15 10:19:37;;;;;;;19.50;17.50;;;16.50;99.90;;;;;;6289453;22;20395;-86
2022/10/15 10:22:25;;;;;;;16.67;13.03;;;16.50;99.90;;;;;;6236555;22;20384;-88
2022/10/15 10:24:55;;;;;;;21.20;14.70;;;16.60;99.90;;;;;;6287624;22;20435;-88
2022/10/15 10:27:29;;;;;;;19.17;12.60;;;16.70;99.90;;;;;;6289065;22;20397;-88
2022/10/15 10:30:01;;;;;;;19.43;14.00;;;16.70;99.90;;;;;;6288542;22;20561;-89
2022/10/15 10:32:33;;;;;;;17.10;13.90;;;16.80;99.90;;;;;;6264248;22;20541;-88
2022/10/15 10:35:04;;;;;;;16.50;13.43;;;16.80;99.90;;;;;;6263950;22;20410;-87
2022/10/15 10:37:41;;;;;;;13.30;11.00;;;16.70;99.90;;;;;;6287118;22;20506;-87
2022/10/15 10:40:28;;;;;;;14.33;12.43;;;16.70;99.90;;;;;;6263810;22;20456;-90
2022/10/15 10:43:23;;;;;;;19.97;14.83;;;16.70;99.90;;;;;;6265670;22;20391;-87
2022/10/15 10:46:16;;;;;;;16.57;12.50;;;16.60;99.90;;;;;;6269022;22;20438;-90
2022/10/15 10:48:53;;;;;;;18.70;13.00;;;16.60;99.90;;;;;;6292295;22;20467;-89
2022/10/15 10:51:31;;;;;;;20.97;13.73;;;16.70;99.90;;;;;;6293956;22;20429;-90
2022/10/15 10:54:05;;;;;;;14.57;13.07;;;16.70;99.90;;;;;;6271221;22;20476;-90
2022/10/15 10:57:00;;;;;;;16.47;13.70;;;16.90;99.90;;;;;;6272496;22;20407;-88
2022/10/15 10:59:52;;;;;;;15.57;13.33;;;17.00;99.90;;;;;;6295810;22;20416;-91
2022/10/15 11:02:21;;;;;;;22.93;13.93;;;17.00;99.90;;;;;;6271076;22;20403;-89
2022/10/15 11:04:51;;;;;;;16.10;13.27;;;17.10;99.90;;;;;;6296230;22;20394;-90
2022/10/15 11:07:35;;;;;;;17.50;15.60;;;17.30;99.90;;;;;;6297598;22;20362;-90
2022/10/15 11:10:33;;;;;;;15.70;13.80;;;17.60;99.90;;;;;;6247674;22;20444;-89
2022/10/15 11:13:30;;;;;;;17.27;15.47;;;18.00;99.90;;;;;;6267468;23;20369;-91
2022/10/15 11:16:21;;;;;;;18.17;14.40;;;18.10;99.90;;;;;;6238662;23;20719;-84
2022/10/15 11:19:11;;;;;;;20.23;16.70;;;18.30;99.90;;;;;;6238828;23;20422;-89
2022/10/15 11:22:23;;;;;;;19.67;15.80;;;18.40;99.90;;;;;;6242305;23;20483;-86
2022/10/15 11:25:18;;;;;;;17.40;15.30;;;18.40;99.90;;;;;;6238840;23;20840;-91
2022/10/15 11:28:02;;;;;;;18.43;15.23;;;18.40;99.90;;;;;;6240261;23;20430;-90
2022/10/15 11:31:08;;;;;;;20.27;17.57;;;18.80;99.90;;;;;;6241418;22;20463;-90
2022/10/15 11:34:26;;;;;;;20.13;15.93;;;18.90;99.90;;;;;;6265606;23;20713;-90
2022/10/15 11:37:14;;;;;;;19.50;17.13;;;18.90;99.90;;;;;;6263374;23;20384;-89
2022/10/15 11:40:17;;;;;;;20.60;16.90;;;19.10;99.90;;;;;;6264752;23;20366;-86
2022/10/15 11:42:56;;;;;;;23.57;17.30;;;19.10;99.90;;;;;;6265715;23;20408;-89
2022/10/15 11:45:53;;;;;;;20.20;16.90;;;19.20;99.90;;;;;;6264737;22;20501;-89
2022/10/15 11:48:59;;;;;;;17.43;15.50;;;19.10;99.90;;;;;;6232478;23;20397;-87
2022/10/15 11:52:05;;;;;;;21.70;16.70;;;19.20;99.90;;;;;;6267346;22;20384;-86
2022/10/15 11:55:01;;;;;;;24.83;17.90;;;19.00;99.90;;;;;;6265871;22;20383;-89
2022/10/15 11:57:46;;;;;;;21.03;16.60;;;19.00;99.90;;;;;;6241784;22;20495;-88
2022/10/15 12:06:02;;;;;;;21.07;17.37;;;19.20;99.90;;;;;;6229804;22;20452;-87
2022/10/15 12:08:37;;;;;;;23.03;17.70;;;19.10;99.90;;;;;;6230641;23;20421;-89
2022/10/15 12:11:23;;;;;;;38.03;28.63;;;19.20;99.90;;;;;;6229075;23;20399;-87
2022/10/15 12:14:11;;;;;;;22.20;17.80;;;19.20;99.90;;;;;;6230383;23;20730;-89
2022/10/15 12:17:24;;;;;;;20.30;15.23;;;19.10;99.90;;;;;;6256328;23;20390;-90
2022/10/15 12:19:53;;;;;;;18.53;15.40;;;18.90;99.90;;;;;;6225491;23;20448;-89
2022/10/15 12:22:34;;;;;;;18.43;14.40;;;18.70;99.90;;;;;;6251763;23;20424;-87
2022/10/15 12:25:05;;;;;;;18.40;13.50;;;18.80;99.90;;;;;;6228371;23;20443;-90
2022/10/15 12:27:38;;;;;;;18.80;15.77;;;18.90;99.90;;;;;;6229163;23;20389;-88
2022/10/15 12:30:08;;;;;;;19.90;15.33;;;19.00;99.90;;;;;;6226832;23;20426;-87
2022/10/15 12:32:41;;;;;;;15.73;13.70;;;18.80;99.90;;;;;;6229166;23;20418;-88
2022/10/15 12:35:20;;;;;;;19.60;15.03;;;18.80;99.90;;;;;;6252870;23;20378;-89
2022/10/15 12:37:50;;;;;;;20.63;14.27;;;18.80;99.90;;;;;;6230486;23;20437;-90
2022/10/15 12:40:21;;;;;;;19.40;16.13;;;18.90;99.90;;;;;;6230853;23;20403;-90
2022/10/15 12:42:51;;;;;;;19.43;17.37;;;18.90;99.90;;;;;;6229853;23;20440;-88
2022/10/15 12:45:37;;;;;;;16.33;14.60;;;19.00;99.90;;;;;;6232346;23;20486;-90
2022/10/15 12:48:15;;;;;;;17.73;14.77;;;19.30;99.90;;;;;;6203152;23;20414;-88
2022/10/15 12:50:48;;;;;;;18.03;14.70;;;19.30;99.90;;;;;;6201488;23;20364;-88
2022/10/15 12:53:31;;;;;;;19.33;15.57;;;19.30;99.90;;;;;;6226784;23;20382;-91
2022/10/15 12:56:09;;;;;;;18.10;14.90;;;19.30;99.90;;;;;;6200471;23;20427;-88
2022/10/15 12:58:54;;;;;;;21.37;16.33;;;19.20;99.90;;;;;;6202043;23;20384;-91
2022/10/15 13:01:48;;;;;;;18.60;16.60;;;19.00;99.90;;;;;;6200163;23;20402;-87
2022/10/15 13:04:16;;;;;;;19.60;17.23;;;19.00;99.90;;;;;;6203301;23;20446;-88
2022/10/15 13:06:44;;;;;;;22.50;18.67;;;18.80;99.90;;;;;;6201065;23;20434;-90
2022/10/15 13:09:13;;;;;;;19.37;17.27;;;18.90;99.90;;;;;;6200218;23;20392;-90
2022/10/15 13:11:45;;;;;;;21.83;17.60;;;18.90;99.90;;;;;;6202236;23;20398;-90
2022/10/15 13:14:30;;;;;;;27.33;17.27;;;18.90;99.90;;;;;;6209895;23;20576;-88
2022/10/15 13:16:59;;;;;;;19.67;16.50;;;18.80;99.90;;;;;;6201049;23;20358;-87
2022/10/15 13:19:37;;;;;;;20.87;17.47;;;18.80;99.90;;;;;;6223833;23;20458;-84
2022/10/15 13:22:23;;;;;;;18.97;16.10;;;18.80;99.90;;;;;;6200278;23;20410;-87
2022/10/15 13:24:52;;;;;;;21.10;17.30;;;18.70;99.90;;;;;;6223763;23;20372;-85
2022/10/15 13:27:38;;;;;;;20.43;17.27;;;18.80;99.90;;;;;;6231436;22;20372;-88
2022/10/15 13:32:48;;;;;;;21.50;16.90;;;18.70;99.90;;;;;;6205471;23;20429;-89
2022/10/15 13:37:59;;;;;;;20.63;16.97;;;18.70;99.90;;;;;;6265434;22;20395;-89
2022/10/15 13:43:28;;;;;;;23.43;18.60;;;18.50;99.90;;;;;;6189528;22;20455;-90
2022/10/15 13:57:05;;;;;;;23.07;18.93;;;18.00;99.90;;;;;;6218211;22;20478;-90
2022/10/15 14:04:50;;;;;;;23.47;17.80;;;18.10;99.90;;;;;;6188079;22;20484;-88
2022/10/15 14:07:27;;;;;;;22.90;19.07;;;17.90;99.90;;;;;;6236347;23;20580;-90
2022/10/15 14:12:40;;;;;;;23.80;19.23;;;17.50;99.90;;;;;;6196840;22;20471;-90
2022/10/15 14:23:27;;;;;;;22.53;18.47;;;17.40;99.90;;;;;;6270546;22;20377;-90
2022/10/15 14:26:22;;;;;;;24.83;17.87;;;17.40;99.90;;;;;;6268695;23;20412;-89
2022/10/15 14:28:56;;;;;;;25.10;18.20;;;17.40;99.90;;;;;;6193857;22;20436;-90
2022/10/15 14:31:44;;;;;;;21.60;19.20;;;17.30;99.90;;;;;;6210018;22;20445;-88
2022/10/15 14:34:33;;;;;;;21.43;17.37;;;17.40;99.90;;;;;;6241074;23;20385;-90
2022/10/15 14:39:53;;;;;;;24.10;18.70;;;17.50;99.90;;;;;;6220828;22;20445;-89
2022/10/15 14:42:32;;;;;;;23.23;19.30;;;17.40;99.90;;;;;;6237833;23;20456;-89
2022/10/15 14:47:49;;;;;;;33.20;24.50;;;17.30;99.90;;;;;;6232584;22;21016;-90
2022/10/15 14:50:48;;;;;;;26.57;21.10;;;17.30;99.90;;;;;;6240624;23;20449;-91
2022/10/15 14:53:28;;;;;;;23.40;20.43;;;17.10;99.90;;;;;;6236783;22;20491;-88
2022/10/15 14:58:31;;;;;;;26.57;21.13;;;17.10;99.90;;;;;;6226808;22;20425;-89
2022/10/15 15:01:14;;;;;;;25.70;20.90;;;17.10;99.90;;;;;;6239296;23;20477;-88
2022/10/15 15:03:51;;;;;;;29.47;20.67;;;17.00;99.90;;;;;;6230121;22;20726;-89
2022/10/15 15:06:20;;;;;;;24.90;19.90;;;17.00;99.90;;;;;;6200827;23;20425;-89
2022/10/15 15:08:52;;;;;;;25.83;22.40;;;16.90;99.90;;;;;;6204193;23;20379;-86
2022/10/15 15:11:24;;;;;;;29.60;22.40;;;17.10;99.90;;;;;;6200160;23;20406;-88
2022/10/15 15:13:52;;;;;;;28.00;21.97;;;17.00;99.90;;;;;;6199981;23;20402;-89
2022/10/15 15:16:20;;;;;;;29.27;23.10;;;17.00;99.90;;;;;;6200374;23;20410;-89
2022/10/15 15:18:48;;;;;;;26.03;21.83;;;16.90;99.90;;;;;;6203330;23;20409;-90
2022/10/15 15:21:23;;;;;;;30.60;23.57;;;16.90;99.90;;;;;;6203180;23;20375;-90
2022/10/15 15:23:55;;;;;;;29.93;21.70;;;16.80;99.90;;;;;;6225790;23;20684;-89
2022/10/15 15:26:25;;;;;;;29.13;24.83;;;16.90;99.90;;;;;;6204920;23;20497;-89
2022/10/15 15:28:59;;;;;;;27.90;22.73;;;16.70;99.90;;;;;;6228106;23;20481;-91
2022/10/15 15:31:28;;;;;;;29.27;22.93;;;16.60;99.90;;;;;;6227143;23;20398;-90
2022/10/15 15:33:57;;;;;;;30.07;24.23;;;16.60;99.90;;;;;;6200904;23;20412;-90
2022/10/15 15:36:25;;;;;;;25.93;22.80;;;16.60;99.90;;;;;;6227150;23;20441;-88
2022/10/15 15:38:57;;;;;;;35.50;23.00;;;16.70;99.90;;;;;;6202830;22;20518;-89
2022/10/15 15:41:27;;;;;;;29.63;22.20;;;16.60;99.90;;;;;;6236029;23;20382;-88
2022/10/15 15:44:11;;;;;;;24.33;21.07;;;16.60;99.90;;;;;;6235066;23;20429;-91
2022/10/15 15:55:20;;;;;;;26.50;20.97;;;16.50;99.90;;;;;;6225316;22;20591;-91
2022/10/15 15:57:48;;;;;;;32.83;22.10;;;16.50;99.90;;;;;;6214281;22;20446;-91
2022/10/15 16:08:19;;;;;;;27.03;22.40;;;16.30;99.90;;;;;;6266631;23;20420;-92
2022/10/15 16:10:47;;;;;;;26.00;20.50;;;16.30;99.90;;;;;;6263868;22;20396;-91
2022/10/15 16:13:17;;;;;;;25.30;19.93;;;16.20;99.90;;;;;;6262305;23;20416;-89
2022/10/15 16:18:12;;;;;;;26.57;22.90;;;16.20;99.90;;;;;;6213068;22;20456;-90
2022/10/15 16:25:53;;;;;;;26.73;20.40;;;16.00;99.90;;;;;;6213077;22;20437;-89
2022/10/15 16:28:21;;;;;;;24.50;21.07;;;16.00;99.90;;;;;;6236626;23;20773;-90
2022/10/15 16:33:29;;;;;;;25.97;20.10;;;16.00;99.90;;;;;;6224745;22;20558;-89
2022/10/15 16:36:24;;;;;;;28.60;20.70;;;16.00;99.90;;;;;;6211993;23;20417;-90
2022/10/15 16:38:53;;;;;;;26.23;20.93;;;16.10;99.90;;;;;;6233409;22;20406;-91
2022/10/15 16:44:05;;;;;;;25.03;21.23;;;16.10;99.90;;;;;;6231350;22;20426;-90
2022/10/15 16:46:36;;;;;;;26.17;21.23;;;16.10;99.90;;;;;;6236435;23;20450;-91
2022/10/15 16:49:10;;;;;;;31.90;21.30;;;16.10;99.90;;;;;;6238869;22;20432;-89
2022/10/15 16:51:44;;;;;;;24.50;20.50;;;16.10;99.90;;;;;;6196929;23;20441;-91
2022/10/15 16:54:18;;;;;;;26.00;22.23;;;16.10;99.90;;;;;;6205286;23;20441;-90
2022/10/15 16:56:46;;;;;;;28.03;22.03;;;16.10;99.90;;;;;;6221921;22;20440;-90
2022/10/15 17:02:02;;;;;;;21.93;18.70;;;16.00;99.90;;;;;;6231401;22;20440;-91
2022/10/15 17:04:45;;;;;;;24.10;18.70;;;16.00;99.90;;;;;;6237134;22;20437;-90
2022/10/15 17:07:24;;;;;;;28.50;19.70;;;16.10;99.90;;;;;;6239019;22;20433;-88
2022/10/15 17:12:42;;;;;;;20.90;17.87;;;16.00;99.90;;;;;;6214034;22;20432;-89
2022/10/15 17:15:12;;;;;;;23.87;19.20;;;15.90;99.90;;;;;;6224324;22;20452;-89
2022/10/15 17:17:41;;;;;;;23.77;17.40;;;16.00;99.90;;;;;;6230627;23;20430;-91
2022/10/15 17:22:50;;;;;;;21.90;19.23;;;16.00;99.90;;;;;;6193033;22;20702;-90
2022/10/15 17:33:12;;;;;;;21.30;16.50;;;15.90;99.90;;;;;;6196909;22;20460;-88
2022/10/15 17:35:47;;;;;;;23.87;18.70;;;15.90;99.90;;;;;;6229076;23;20401;-88
2022/10/15 17:38:15;;;;;;;20.23;18.13;;;15.80;99.90;;;;;;6227206;23;20467;-88
2022/10/15 17:40:49;;;;;;;22.07;16.40;;;15.70;99.90;;;;;;6206398;23;20385;-87
2022/10/15 17:43:23;;;;;;;19.20;15.80;;;15.70;99.90;;;;;;6207510;23;20432;-88
2022/10/15 17:46:16;;;;;;;21.43;18.40;;;15.70;99.90;;;;;;6227657;23;20440;-88
2022/10/15 17:48:44;;;;;;;17.47;15.57;;;15.60;99.90;;;;;;6226588;23;20431;-85
2022/10/15 17:51:29;;;;;;;22.37;16.77;;;15.80;99.90;;;;;;6227391;23;20397;-86
2022/10/15 17:53:58;;;;;;;18.63;14.97;;;15.80;99.90;;;;;;6202184;23;20461;-86
2022/10/15 17:56:31;;;;;;;21.73;17.47;;;15.80;99.90;;;;;;6226743;23;20404;-90